sensor_id;sensor_type;location;lat;lon;timestamp;temperature;humidity
46091;DHT22;31826;53.572;10.170;2024-02-23T00:02:18;9.70;99.90
46091;DHT22;31826;53.572;10.170;2024-02-23T00:04:43;9.70;99.90
46091;DHT22;31826;53.572;10.170;2024-02-23T00:07:10;9.70;99.90
46091;DHT22;31826;53.572;10.170;2024-02-23T00:09:36;9.70;99.90
46091;DHT22;31826;53.572;10.170;2024-02-23T00:12:03;9.70;99.90
46091;DHT22;31826;53.572;10.170;2024-02-23T00:14:29;9.60;99.90
46091;DHT22;31826;53.572;10.170;2024-02-23T00:16:56;9.60;99.90
46091;DHT22;31826;53.572;10.170;2024-02-23T00:19:23;9.60;99.90
46091;DHT22;31826;53.572;10.170;2024-02-23T00:21:49;9.60;99.90
46091;DHT22;31826;53.572;10.170;2024-02-23T00:24:19;9.50;99.90
46091;DHT22;31826;53.572;10.170;2024-02-23T00:26:48;9.40;99.90
46091;DHT22;31826;53.572;10.170;2024-02-23T00:29:14;9.40;99.90
46091;DHT22;31826;53.572;10.170;2024-02-23T00:31:40;9.40;99.90
46091;DHT22;31826;53.572;10.170;2024-02-23T00:34:07;9.30;99.90
46091;DHT22;31826;53.572;10.170;2024-02-23T00:36:40;9.20;99.90
46091;DHT22;31826;53.572;10.170;2024-02-23T00:39:07;9.20;99.90
46091;DHT22;31826;53.572;10.170;2024-02-23T00:41:33;9.20;99.90
46091;DHT22;31826;53.572;10.170;2024-02-23T00:43:59;9.20;99.90
46091;DHT22;31826;53.572;10.170;2024-02-23T00:46:24;9.20;99.90
46091;DHT22;31826;53.572;10.170;2024-02-23T00:48:50;9.20;99.90
46091;DHT22;31826;53.572;10.170;2024-02-23T00:51:16;9.10;99.90
46091;DHT22;31826;53.572;10.170;2024-02-23T00:53:42;9.20;99.90
46091;DHT22;31826;53.572;10.170;2024-02-23T00:56:08;9.10;99.90
46091;DHT22;31826;53.572;10.170;2024-02-23T00:58:33;9.10;99.90
46091;DHT22;31826;53.572;10.170;2024-02-23T01:00:59;9.00;99.90
46091;DHT22;31826;53.572;10.170;2024-02-23T01:03:25;9.00;99.90
46091;DHT22;31826;53.572;10.170;2024-02-23T01:05:51;8.70;99.90
46091;DHT22;31826;53.572;10.170;2024-02-23T01:08:17;8.40;99.90
46091;DHT22;31826;53.572;10.170;2024-02-23T01:10:43;7.80;99.90
46091;DHT22;31826;53.572;10.170;2024-02-23T01:13:09;7.50;99.90
46091;DHT22;31826;53.572;10.170;2024-02-23T01:15:34;7.20;99.90
46091;DHT22;31826;53.572;10.170;2024-02-23T01:18:00;7.10;99.90
46091;DHT22;31826;53.572;10.170;2024-02-23T01:20:26;7.10;99.90
46091;DHT22;31826;53.572;10.170;2024-02-23T01:22:51;6.90;99.90
46091;DHT22;31826;53.572;10.170;2024-02-23T01:25:17;6.90;99.90
46091;DHT22;31826;53.572;10.170;2024-02-23T01:27:43;6.90;99.90
46091;DHT22;31826;53.572;10.170;2024-02-23T01:30:11;6.90;99.90
46091;DHT22;31826;53.572;10.170;2024-02-23T01:32:37;6.90;99.90
46091;DHT22;31826;53.572;10.170;2024-02-23T01:35:05;6.90;99.90
46091;DHT22;31826;53.572;10.170;2024-02-23T01:37:31;6.90;99.90
46091;DHT22;31826;53.572;10.170;2024-02-23T01:39:58;6.90;99.90
46091;DHT22;31826;53.572;10.170;2024-02-23T01:42:24;6.80;99.90
46091;DHT22;31826;53.572;10.170;2024-02-23T01:44:51;6.80;99.90
46091;DHT22;31826;53.572;10.170;2024-02-23T01:47:17;6.80;99.90
46091;DHT22;31826;53.572;10.170;2024-02-23T01:49:47;6.80;99.90
46091;DHT22;31826;53.572;10.170;2024-02-23T01:52:13;6.80;99.90
46091;DHT22;31826;53.572;10.170;2024-02-23T01:54:40;6.80;99.90
46091;DHT22;31826;53.572;10.170;2024-02-23T01:57:07;6.80;99.90
46091;DHT22;31826;53.572;10.170;2024-02-23T01:59:35;6.80;99.90
46091;DHT22;31826;53.572;10.170;2024-02-23T02:02:03;6.90;99.90
46091;DHT22;31826;53.572;10.170;2024-02-23T02:04:29;6.80;99.90
46091;DHT22;31826;53.572;10.170;2024-02-23T02:06:55;6.80;99.90
46091;DHT22;31826;53.572;10.170;2024-02-23T02:09:21;6.80;99.90
46091;DHT22;31826;53.572;10.170;2024-02-23T02:11:48;6.80;99.90
46091;DHT22;31826;53.572;10.170;2024-02-23T02:14:15;6.80;99.90
46091;DHT22;31826;53.572;10.170;2024-02-23T02:16:40;6.90;99.90
46091;DHT22;31826;53.572;10.170;2024-02-23T02:19:06;6.90;99.90
46091;DHT22;31826;53.572;10.170;2024-02-23T02:21:33;6.90;99.90
46091;DHT22;31826;53.572;10.170;2024-02-23T02:23:59;6.80;99.90
46091;DHT22;31826;53.572;10.170;2024-02-23T02:26:24;6.90;99.90
46091;DHT22;31826;53.572;10.170;2024-02-23T02:28:50;6.80;99.90
46091;DHT22;31826;53.572;10.170;2024-02-23T02:31:18;6.90;99.90
46091;DHT22;31826;53.572;10.170;2024-02-23T02:33:43;6.80;99.90
46091;DHT22;31826;53.572;10.170;2024-02-23T02:36:09;6.80;99.90
46091;DHT22;31826;53.572;10.170;2024-02-23T02:38:35;6.80;99.90
46091;DHT22;31826;53.572;10.170;2024-02-23T02:41:01;6.80;99.90
46091;DHT22;31826;53.572;10.170;2024-02-23T02:43:27;6.70;99.90
46091;DHT22;31826;53.572;10.170;2024-02-23T02:45:53;6.70;99.90
46091;DHT22;31826;53.572;10.170;2024-02-23T02:48:19;6.60;99.90
46091;DHT22;31826;53.572;10.170;2024-02-23T02:50:45;6.60;99.90
46091;DHT22;31826;53.572;10.170;2024-02-23T02:53:11;6.60;99.90
46091;DHT22;31826;53.572;10.170;2024-02-23T02:55:40;6.60;99.90
46091;DHT22;31826;53.572;10.170;2024-02-23T02:58:06;6.50;99.90
46091;DHT22;31826;53.572;10.170;2024-02-23T03:00:32;6.40;99.90
46091;DHT22;31826;53.572;10.170;2024-02-23T03:02:58;6.40;99.90
46091;DHT22;31826;53.572;10.170;2024-02-23T03:05:23;6.40;99.90
46091;DHT22;31826;53.572;10.170;2024-02-23T03:07:49;6.40;99.90
46091;DHT22;31826;53.572;10.170;2024-02-23T03:10:15;6.30;99.90
46091;DHT22;31826;53.572;10.170;2024-02-23T03:12:41;6.30;99.90
46091;DHT22;31826;53.572;10.170;2024-02-23T03:15:07;6.20;99.90
46091;DHT22;31826;53.572;10.170;2024-02-23T03:17:34;6.20;99.90
46091;DHT22;31826;53.572;10.170;2024-02-23T03:20:00;6.20;99.90
46091;DHT22;31826;53.572;10.170;2024-02-23T03:22:25;6.20;99.90
46091;DHT22;31826;53.572;10.170;2024-02-23T03:24:51;6.10;99.90
46091;DHT22;31826;53.572;10.170;2024-02-23T03:27:17;6.10;99.90
46091;DHT22;31826;53.572;10.170;2024-02-23T03:29:42;6.10;99.90
46091;DHT22;31826;53.572;10.170;2024-02-23T03:32:08;6.00;99.90
46091;DHT22;31826;53.572;10.170;2024-02-23T03:34:35;6.00;99.90
46091;DHT22;31826;53.572;10.170;2024-02-23T03:37:00;6.10;99.90
46091;DHT22;31826;53.572;10.170;2024-02-23T03:39:28;6.00;99.90
46091;DHT22;31826;53.572;10.170;2024-02-23T03:41:54;6.10;99.90
46091;DHT22;31826;53.572;10.170;2024-02-23T03:44:20;6.00;99.90
46091;DHT22;31826;53.572;10.170;2024-02-23T03:46:45;6.00;99.90
46091;DHT22;31826;53.572;10.170;2024-02-23T03:49:11;5.90;99.90
46091;DHT22;31826;53.572;10.170;2024-02-23T03:51:37;6.00;99.90
46091;DHT22;31826;53.572;10.170;2024-02-23T03:54:05;6.00;99.90
46091;DHT22;31826;53.572;10.170;2024-02-23T03:56:41;6.00;99.90
46091;DHT22;31826;53.572;10.170;2024-02-23T03:59:07;6.00;99.90
46091;DHT22;31826;53.572;10.170;2024-02-23T04:01:37;5.90;99.90
46091;DHT22;31826;53.572;10.170;2024-02-23T04:04:03;5.90;99.90
46091;DHT22;31826;53.572;10.170;2024-02-23T04:06:29;5.80;99.90
46091;DHT22;31826;53.572;10.170;2024-02-23T04:08:55;5.70;99.90
46091;DHT22;31826;53.572;10.170;2024-02-23T04:11:20;5.70;99.90
46091;DHT22;31826;53.572;10.170;2024-02-23T04:13:46;5.70;99.90
46091;DHT22;31826;53.572;10.170;2024-02-23T04:16:12;5.70;99.90
46091;DHT22;31826;53.572;10.170;2024-02-23T04:18:37;5.70;99.90
46091;DHT22;31826;53.572;10.170;2024-02-23T04:21:03;5.60;99.90
46091;DHT22;31826;53.572;10.170;2024-02-23T04:23:29;5.60;99.90
46091;DHT22;31826;53.572;10.170;2024-02-23T04:25:55;5.60;99.90
46091;DHT22;31826;53.572;10.170;2024-02-23T04:28:21;5.70;99.90
46091;DHT22;31826;53.572;10.170;2024-02-23T04:30:46;5.70;99.90
46091;DHT22;31826;53.572;10.170;2024-02-23T04:33:12;5.70;99.90
46091;DHT22;31826;53.572;10.170;2024-02-23T04:35:38;5.70;99.90
46091;DHT22;31826;53.572;10.170;2024-02-23T04:38:04;5.70;99.90
46091;DHT22;31826;53.572;10.170;2024-02-23T04:40:29;5.70;99.90
46091;DHT22;31826;53.572;10.170;2024-02-23T04:42:55;5.70;99.90
46091;DHT22;31826;53.572;10.170;2024-02-23T04:45:21;5.60;99.90
46091;DHT22;31826;53.572;10.170;2024-02-23T04:47:46;5.60;99.90
46091;DHT22;31826;53.572;10.170;2024-02-23T04:50:13;5.60;99.90
46091;DHT22;31826;53.572;10.170;2024-02-23T04:52:39;5.70;99.90
46091;DHT22;31826;53.572;10.170;2024-02-23T04:55:05;5.70;99.90
46091;DHT22;31826;53.572;10.170;2024-02-23T04:57:31;5.60;99.90
46091;DHT22;31826;53.572;10.170;2024-02-23T04:59:57;5.60;99.90
46091;DHT22;31826;53.572;10.170;2024-02-23T05:02:23;5.70;99.90
46091;DHT22;31826;53.572;10.170;2024-02-23T05:04:49;5.70;99.90
46091;DHT22;31826;53.572;10.170;2024-02-23T05:07:14;5.70;99.90
46091;DHT22;31826;53.572;10.170;2024-02-23T05:09:40;5.70;99.90
46091;DHT22;31826;53.572;10.170;2024-02-23T05:12:10;5.70;99.90
46091;DHT22;31826;53.572;10.170;2024-02-23T05:14:35;5.60;99.90
46091;DHT22;31826;53.572;10.170;2024-02-23T05:17:01;5.70;99.90
46091;DHT22;31826;53.572;10.170;2024-02-23T05:19:27;5.70;99.90
46091;DHT22;31826;53.572;10.170;2024-02-23T05:21:52;5.60;99.90
46091;DHT22;31826;53.572;10.170;2024-02-23T05:24:18;5.60;99.90
46091;DHT22;31826;53.572;10.170;2024-02-23T05:26:44;5.60;99.90
46091;DHT22;31826;53.572;10.170;2024-02-23T05:29:10;5.50;99.90
46091;DHT22;31826;53.572;10.170;2024-02-23T05:31:52;5.50;99.90
46091;DHT22;31826;53.572;10.170;2024-02-23T05:34:18;5.60;99.90
46091;DHT22;31826;53.572;10.170;2024-02-23T05:36:44;5.50;99.90
46091;DHT22;31826;53.572;10.170;2024-02-23T05:39:12;5.60;99.90
46091;DHT22;31826;53.572;10.170;2024-02-23T05:41:38;5.50;99.90
46091;DHT22;31826;53.572;10.170;2024-02-23T05:44:04;5.50;99.90
46091;DHT22;31826;53.572;10.170;2024-02-23T05:46:35;5.40;99.90
46091;DHT22;31826;53.572;10.170;2024-02-23T05:49:01;5.40;99.90
46091;DHT22;31826;53.572;10.170;2024-02-23T05:51:28;5.40;99.90
46091;DHT22;31826;53.572;10.170;2024-02-23T05:53:58;5.50;99.90
46091;DHT22;31826;53.572;10.170;2024-02-23T05:56:24;5.50;99.90
46091;DHT22;31826;53.572;10.170;2024-02-23T05:58:50;5.50;99.90
46091;DHT22;31826;53.572;10.170;2024-02-23T06:01:17;5.50;99.90
46091;DHT22;31826;53.572;10.170;2024-02-23T06:03:43;5.40;99.90
46091;DHT22;31826;53.572;10.170;2024-02-23T06:06:10;5.50;99.90
46091;DHT22;31826;53.572;10.170;2024-02-23T06:08:36;5.50;99.90
46091;DHT22;31826;53.572;10.170;2024-02-23T06:11:02;5.50;99.90
46091;DHT22;31826;53.572;10.170;2024-02-23T06:13:31;5.60;99.90
46091;DHT22;31826;53.572;10.170;2024-02-23T06:15:57;5.60;99.90
46091;DHT22;31826;53.572;10.170;2024-02-23T06:18:23;5.50;99.90
46091;DHT22;31826;53.572;10.170;2024-02-23T06:20:49;5.50;99.90
46091;DHT22;31826;53.572;10.170;2024-02-23T06:23:16;5.60;99.90
46091;DHT22;31826;53.572;10.170;2024-02-23T06:25:42;5.50;99.90
46091;DHT22;31826;53.572;10.170;2024-02-23T06:28:09;5.50;99.90
46091;DHT22;31826;53.572;10.170;2024-02-23T06:30:36;5.50;99.90
46091;DHT22;31826;53.572;10.170;2024-02-23T06:33:02;5.50;99.90
46091;DHT22;31826;53.572;10.170;2024-02-23T06:35:27;5.40;99.90
46091;DHT22;31826;53.572;10.170;2024-02-23T06:37:53;5.50;99.90
46091;DHT22;31826;53.572;10.170;2024-02-23T06:40:19;5.40;99.90
46091;DHT22;31826;53.572;10.170;2024-02-23T06:42:45;5.40;99.90
46091;DHT22;31826;53.572;10.170;2024-02-23T06:45:10;5.30;99.90
46091;DHT22;31826;53.572;10.170;2024-02-23T06:47:36;5.30;99.90
46091;DHT22;31826;53.572;10.170;2024-02-23T06:50:02;5.30;99.90
46091;DHT22;31826;53.572;10.170;2024-02-23T06:52:29;5.20;99.90
46091;DHT22;31826;53.572;10.170;2024-02-23T06:54:54;5.30;99.90
46091;DHT22;31826;53.572;10.170;2024-02-23T06:57:20;5.20;99.90
46091;DHT22;31826;53.572;10.170;2024-02-23T06:59:46;5.20;99.90
46091;DHT22;31826;53.572;10.170;2024-02-23T07:02:12;5.20;99.90
46091;DHT22;31826;53.572;10.170;2024-02-23T07:04:37;5.30;99.90
46091;DHT22;31826;53.572;10.170;2024-02-23T07:07:03;5.20;99.90
46091;DHT22;31826;53.572;10.170;2024-02-23T07:09:33;5.30;99.90
46091;DHT22;31826;53.572;10.170;2024-02-23T07:11:59;5.30;99.90
46091;DHT22;31826;53.572;10.170;2024-02-23T07:14:25;5.30;99.90
46091;DHT22;31826;53.572;10.170;2024-02-23T07:16:51;5.40;99.90
46091;DHT22;31826;53.572;10.170;2024-02-23T07:19:19;5.40;99.90
46091;DHT22;31826;53.572;10.170;2024-02-23T07:21:48;5.50;99.90
46091;DHT22;31826;53.572;10.170;2024-02-23T07:24:14;5.60;99.90
46091;DHT22;31826;53.572;10.170;2024-02-23T07:26:39;5.70;99.90
46091;DHT22;31826;53.572;10.170;2024-02-23T07:29:07;5.70;99.90
46091;DHT22;31826;53.572;10.170;2024-02-23T07:31:32;5.70;99.90
46091;DHT22;31826;53.572;10.170;2024-02-23T07:33:58;5.70;99.90
46091;DHT22;31826;53.572;10.170;2024-02-23T07:36:24;5.70;99.90
46091;DHT22;31826;53.572;10.170;2024-02-23T07:38:49;5.70;99.90
46091;DHT22;31826;53.572;10.170;2024-02-23T07:41:15;5.80;99.90
46091;DHT22;31826;53.572;10.170;2024-02-23T07:43:43;5.70;99.90
46091;DHT22;31826;53.572;10.170;2024-02-23T07:46:09;5.70;99.90
46091;DHT22;31826;53.572;10.170;2024-02-23T07:48:35;5.80;99.90
46091;DHT22;31826;53.572;10.170;2024-02-23T07:51:02;5.80;99.90
46091;DHT22;31826;53.572;10.170;2024-02-23T07:53:28;5.90;99.90
46091;DHT22;31826;53.572;10.170;2024-02-23T07:55:54;5.90;99.90
46091;DHT22;31826;53.572;10.170;2024-02-23T07:58:20;6.00;99.90
46091;DHT22;31826;53.572;10.170;2024-02-23T08:00:46;6.00;99.90
46091;DHT22;31826;53.572;10.170;2024-02-23T08:03:12;6.00;99.90
46091;DHT22;31826;53.572;10.170;2024-02-23T08:05:38;6.00;99.90
46091;DHT22;31826;53.572;10.170;2024-02-23T08:08:04;6.10;99.90
46091;DHT22;31826;53.572;10.170;2024-02-23T08:10:32;6.00;99.90
46091;DHT22;31826;53.572;10.170;2024-02-23T08:12:58;6.10;99.90
46091;DHT22;31826;53.572;10.170;2024-02-23T08:15:24;6.10;99.90
46091;DHT22;31826;53.572;10.170;2024-02-23T08:17:50;6.10;99.90
46091;DHT22;31826;53.572;10.170;2024-02-23T08:20:16;6.10;99.90
46091;DHT22;31826;53.572;10.170;2024-02-23T08:22:41;6.10;99.90
46091;DHT22;31826;53.572;10.170;2024-02-23T08:25:07;6.10;99.90
46091;DHT22;31826;53.572;10.170;2024-02-23T08:27:33;6.20;99.90
46091;DHT22;31826;53.572;10.170;2024-02-23T08:29:59;6.30;99.90
46091;DHT22;31826;53.572;10.170;2024-02-23T08:32:25;6.30;99.90
46091;DHT22;31826;53.572;10.170;2024-02-23T08:34:51;6.30;99.90
46091;DHT22;31826;53.572;10.170;2024-02-23T08:37:18;6.40;99.90
46091;DHT22;31826;53.572;10.170;2024-02-23T08:39:44;6.50;99.90
46091;DHT22;31826;53.572;10.170;2024-02-23T08:42:10;6.60;99.90
46091;DHT22;31826;53.572;10.170;2024-02-23T08:44:35;6.60;99.90
46091;DHT22;31826;53.572;10.170;2024-02-23T08:47:03;6.70;99.90
46091;DHT22;31826;53.572;10.170;2024-02-23T08:49:29;6.70;99.90
46091;DHT22;31826;53.572;10.170;2024-02-23T08:51:55;6.70;99.90
46091;DHT22;31826;53.572;10.170;2024-02-23T08:54:23;6.80;99.90
46091;DHT22;31826;53.572;10.170;2024-02-23T08:56:49;6.80;99.90
46091;DHT22;31826;53.572;10.170;2024-02-23T08:59:15;6.80;99.90
46091;DHT22;31826;53.572;10.170;2024-02-23T09:01:40;6.70;99.90
46091;DHT22;31826;53.572;10.170;2024-02-23T09:04:06;6.70;99.90
46091;DHT22;31826;53.572;10.170;2024-02-23T09:06:32;6.70;99.90
46091;DHT22;31826;53.572;10.170;2024-02-23T09:08:58;6.70;99.90
46091;DHT22;31826;53.572;10.170;2024-02-23T09:11:24;6.80;99.90
46091;DHT22;31826;53.572;10.170;2024-02-23T09:13:50;6.80;99.90
46091;DHT22;31826;53.572;10.170;2024-02-23T09:16:15;6.80;99.90
46091;DHT22;31826;53.572;10.170;2024-02-23T09:18:41;6.80;99.90
46091;DHT22;31826;53.572;10.170;2024-02-23T09:21:07;6.70;99.90
46091;DHT22;31826;53.572;10.170;2024-02-23T09:23:32;6.80;99.90
46091;DHT22;31826;53.572;10.170;2024-02-23T09:25:59;6.80;99.90
46091;DHT22;31826;53.572;10.170;2024-02-23T09:28:25;6.70;99.90
46091;DHT22;31826;53.572;10.170;2024-02-23T09:30:50;6.80;99.90
46091;DHT22;31826;53.572;10.170;2024-02-23T09:33:16;6.80;99.90
46091;DHT22;31826;53.572;10.170;2024-02-23T09:35:42;6.80;99.90
46091;DHT22;31826;53.572;10.170;2024-02-23T09:38:07;6.80;99.90
46091;DHT22;31826;53.572;10.170;2024-02-23T09:40:33;6.90;99.90
46091;DHT22;31826;53.572;10.170;2024-02-23T09:42:59;6.90;99.90
46091;DHT22;31826;53.572;10.170;2024-02-23T09:45:25;7.00;99.90
46091;DHT22;31826;53.572;10.170;2024-02-23T09:47:56;7.00;99.90
46091;DHT22;31826;53.572;10.170;2024-02-23T09:50:23;7.00;99.90
46091;DHT22;31826;53.572;10.170;2024-02-23T09:52:49;7.00;99.90
46091;DHT22;31826;53.572;10.170;2024-02-23T09:55:18;7.10;99.90
46091;DHT22;31826;53.572;10.170;2024-02-23T09:57:48;7.10;99.90
46091;DHT22;31826;53.572;10.170;2024-02-23T10:00:16;7.30;99.90
46091;DHT22;31826;53.572;10.170;2024-02-23T10:02:43;7.40;99.90
46091;DHT22;31826;53.572;10.170;2024-02-23T10:05:10;7.40;99.90
46091;DHT22;31826;53.572;10.170;2024-02-23T10:07:37;7.60;99.90
46091;DHT22;31826;53.572;10.170;2024-02-23T10:10:07;7.70;99.90
46091;DHT22;31826;53.572;10.170;2024-02-23T10:12:34;7.70;99.90
46091;DHT22;31826;53.572;10.170;2024-02-23T10:15:01;7.90;99.90
46091;DHT22;31826;53.572;10.170;2024-02-23T10:17:32;8.20;99.90
46091;DHT22;31826;53.572;10.170;2024-02-23T10:19:59;8.40;99.90
46091;DHT22;31826;53.572;10.170;2024-02-23T10:22:25;8.50;99.90
46091;DHT22;31826;53.572;10.170;2024-02-23T10:24:51;8.30;99.90
46091;DHT22;31826;53.572;10.170;2024-02-23T10:27:17;8.40;99.90
46091;DHT22;31826;53.572;10.170;2024-02-23T10:29:43;8.40;99.90
46091;DHT22;31826;53.572;10.170;2024-02-23T10:32:14;8.20;99.90
46091;DHT22;31826;53.572;10.170;2024-02-23T10:34:42;8.40;99.90
46091;DHT22;31826;53.572;10.170;2024-02-23T10:37:08;8.70;99.90
46091;DHT22;31826;53.572;10.170;2024-02-23T10:39:37;8.90;99.90
46091;DHT22;31826;53.572;10.170;2024-02-23T10:42:11;8.80;99.90
46091;DHT22;31826;53.572;10.170;2024-02-23T10:44:39;8.90;99.90
46091;DHT22;31826;53.572;10.170;2024-02-23T10:47:07;8.90;99.90
46091;DHT22;31826;53.572;10.170;2024-02-23T10:49:33;9.00;99.90
46091;DHT22;31826;53.572;10.170;2024-02-23T10:51:59;8.80;99.90
46091;DHT22;31826;53.572;10.170;2024-02-23T10:54:26;8.70;99.90
46091;DHT22;31826;53.572;10.170;2024-02-23T10:56:52;8.90;99.90
46091;DHT22;31826;53.572;10.170;2024-02-23T10:59:18;9.00;99.90
46091;DHT22;31826;53.572;10.170;2024-02-23T11:01:48;9.20;99.90
46091;DHT22;31826;53.572;10.170;2024-02-23T11:04:16;9.10;99.90
46091;DHT22;31826;53.572;10.170;2024-02-23T11:06:42;8.70;99.90
46091;DHT22;31826;53.572;10.170;2024-02-23T11:09:14;8.50;99.90
46091;DHT22;31826;53.572;10.170;2024-02-23T11:11:39;8.50;99.90
46091;DHT22;31826;53.572;10.170;2024-02-23T11:14:08;8.30;99.90
46091;DHT22;31826;53.572;10.170;2024-02-23T11:16:40;8.20;99.90
46091;DHT22;31826;53.572;10.170;2024-02-23T11:19:08;8.20;99.90
46091;DHT22;31826;53.572;10.170;2024-02-23T11:21:37;8.10;99.90
46091;DHT22;31826;53.572;10.170;2024-02-23T11:24:04;8.10;99.90
46091;DHT22;31826;53.572;10.170;2024-02-23T11:26:30;8.10;99.90
46091;DHT22;31826;53.572;10.170;2024-02-23T11:28:57;8.10;99.90
46091;DHT22;31826;53.572;10.170;2024-02-23T11:31:25;8.10;99.90
46091;DHT22;31826;53.572;10.170;2024-02-23T11:33:57;8.10;99.90
46091;DHT22;31826;53.572;10.170;2024-02-23T11:36:27;8.00;99.90
46091;DHT22;31826;53.572;10.170;2024-02-23T11:38:54;8.10;99.90
46091;DHT22;31826;53.572;10.170;2024-02-23T11:41:23;8.10;99.90
46091;DHT22;31826;53.572;10.170;2024-02-23T11:43:50;8.00;99.90
46091;DHT22;31826;53.572;10.170;2024-02-23T11:46:19;8.10;99.90
46091;DHT22;31826;53.572;10.170;2024-02-23T11:48:45;8.10;99.90
46091;DHT22;31826;53.572;10.170;2024-02-23T11:51:15;8.10;99.90
46091;DHT22;31826;53.572;10.170;2024-02-23T11:53:42;8.20;99.90
46091;DHT22;31826;53.572;10.170;2024-02-23T11:56:09;8.20;99.90
46091;DHT22;31826;53.572;10.170;2024-02-23T11:58:35;8.60;99.90
46091;DHT22;31826;53.572;10.170;2024-02-23T12:01:02;8.70;99.90
46091;DHT22;31826;53.572;10.170;2024-02-23T12:03:31;8.60;99.90
46091;DHT22;31826;53.572;10.170;2024-02-23T12:06:00;8.50;99.90
46091;DHT22;31826;53.572;10.170;2024-02-23T12:08:27;8.50;99.90
46091;DHT22;31826;53.572;10.170;2024-02-23T12:10:56;8.50;99.90
46091;DHT22;31826;53.572;10.170;2024-02-23T12:13:22;8.40;99.90
46091;DHT22;31826;53.572;10.170;2024-02-23T12:15:51;8.30;99.90
46091;DHT22;31826;53.572;10.170;2024-02-23T12:18:18;8.30;99.90
46091;DHT22;31826;53.572;10.170;2024-02-23T12:20:47;8.30;99.90
46091;DHT22;31826;53.572;10.170;2024-02-23T12:23:13;8.40;99.90
46091;DHT22;31826;53.572;10.170;2024-02-23T12:25:38;8.20;99.90
46091;DHT22;31826;53.572;10.170;2024-02-23T12:28:04;8.20;99.90
46091;DHT22;31826;53.572;10.170;2024-02-23T12:30:31;8.30;99.90
46091;DHT22;31826;53.572;10.170;2024-02-23T12:33:05;8.30;99.90
46091;DHT22;31826;53.572;10.170;2024-02-23T12:35:34;8.30;99.90
46091;DHT22;31826;53.572;10.170;2024-02-23T12:38:00;8.30;99.90
46091;DHT22;31826;53.572;10.170;2024-02-23T12:40:26;8.30;99.90
46091;DHT22;31826;53.572;10.170;2024-02-23T12:42:54;8.30;99.90
46091;DHT22;31826;53.572;10.170;2024-02-23T12:45:19;8.40;99.90
46091;DHT22;31826;53.572;10.170;2024-02-23T12:47:45;8.40;99.90
46091;DHT22;31826;53.572;10.170;2024-02-23T12:50:11;8.40;99.90
46091;DHT22;31826;53.572;10.170;2024-02-23T12:52:36;8.40;99.90
46091;DHT22;31826;53.572;10.170;2024-02-23T12:55:02;8.40;99.90
46091;DHT22;31826;53.572;10.170;2024-02-23T12:57:28;8.40;99.90
46091;DHT22;31826;53.572;10.170;2024-02-23T12:59:54;8.40;99.90
46091;DHT22;31826;53.572;10.170;2024-02-23T13:02:20;8.30;99.90
46091;DHT22;31826;53.572;10.170;2024-02-23T13:04:46;8.30;99.90
46091;DHT22;31826;53.572;10.170;2024-02-23T13:07:17;8.40;99.90
46091;DHT22;31826;53.572;10.170;2024-02-23T13:09:44;8.40;99.90
46091;DHT22;31826;53.572;10.170;2024-02-23T13:12:09;8.30;99.90
46091;DHT22;31826;53.572;10.170;2024-02-23T13:14:35;8.30;99.90
46091;DHT22;31826;53.572;10.170;2024-02-23T13:17:01;8.30;99.90
46091;DHT22;31826;53.572;10.170;2024-02-23T13:19:26;8.30;99.90
46091;DHT22;31826;53.572;10.170;2024-02-23T13:21:52;8.30;99.90
46091;DHT22;31826;53.572;10.170;2024-02-23T13:24:18;8.40;99.90
46091;DHT22;31826;53.572;10.170;2024-02-23T13:26:44;8.40;99.90
46091;DHT22;31826;53.572;10.170;2024-02-23T13:29:10;8.40;99.90
46091;DHT22;31826;53.572;10.170;2024-02-23T13:31:36;8.40;99.90
46091;DHT22;31826;53.572;10.170;2024-02-23T13:34:03;8.50;99.90
46091;DHT22;31826;53.572;10.170;2024-02-23T13:36:29;8.50;99.90
46091;DHT22;31826;53.572;10.170;2024-02-23T13:38:55;8.50;99.90
46091;DHT22;31826;53.572;10.170;2024-02-23T13:41:20;8.50;99.90
46091;DHT22;31826;53.572;10.170;2024-02-23T13:43:46;8.50;99.90
46091;DHT22;31826;53.572;10.170;2024-02-23T13:46:12;8.50;99.90
46091;DHT22;31826;53.572;10.170;2024-02-23T13:48:38;8.50;99.90
46091;DHT22;31826;53.572;10.170;2024-02-23T13:51:04;8.50;99.90
46091;DHT22;31826;53.572;10.170;2024-02-23T13:53:31;8.40;99.90
46091;DHT22;31826;53.572;10.170;2024-02-23T13:55:57;8.40;99.90
46091;DHT22;31826;53.572;10.170;2024-02-23T13:58:23;8.50;99.90
46091;DHT22;31826;53.572;10.170;2024-02-23T14:00:48;8.50;99.90
46091;DHT22;31826;53.572;10.170;2024-02-23T14:03:16;8.40;99.90
46091;DHT22;31826;53.572;10.170;2024-02-23T14:05:43;8.40;99.90
46091;DHT22;31826;53.572;10.170;2024-02-23T14:08:10;8.40;99.90
46091;DHT22;31826;53.572;10.170;2024-02-23T14:10:36;8.40;99.90
46091;DHT22;31826;53.572;10.170;2024-02-23T14:13:02;8.40;99.90
46091;DHT22;31826;53.572;10.170;2024-02-23T14:15:28;8.40;99.90
46091;DHT22;31826;53.572;10.170;2024-02-23T14:17:53;8.40;99.90
46091;DHT22;31826;53.572;10.170;2024-02-23T14:20:19;8.50;99.90
46091;DHT22;31826;53.572;10.170;2024-02-23T14:22:45;8.40;99.90
46091;DHT22;31826;53.572;10.170;2024-02-23T14:25:10;8.50;99.90
46091;DHT22;31826;53.572;10.170;2024-02-23T14:27:36;8.50;99.90
46091;DHT22;31826;53.572;10.170;2024-02-23T14:30:02;8.50;99.90
46091;DHT22;31826;53.572;10.170;2024-02-23T14:32:28;8.60;99.90
46091;DHT22;31826;53.572;10.170;2024-02-23T14:34:54;8.60;99.90
46091;DHT22;31826;53.572;10.170;2024-02-23T14:37:20;8.60;99.90
46091;DHT22;31826;53.572;10.170;2024-02-23T14:39:46;8.60;99.90
46091;DHT22;31826;53.572;10.170;2024-02-23T14:42:12;8.60;99.90
46091;DHT22;31826;53.572;10.170;2024-02-23T14:44:37;8.60;99.90
46091;DHT22;31826;53.572;10.170;2024-02-23T14:47:04;8.70;99.90
46091;DHT22;31826;53.572;10.170;2024-02-23T14:49:31;8.70;99.90
46091;DHT22;31826;53.572;10.170;2024-02-23T14:51:57;8.70;99.90
46091;DHT22;31826;53.572;10.170;2024-02-23T14:54:23;8.70;99.90
46091;DHT22;31826;53.572;10.170;2024-02-23T14:56:48;8.60;99.90
46091;DHT22;31826;53.572;10.170;2024-02-23T14:59:14;8.60;99.90
46091;DHT22;31826;53.572;10.170;2024-02-23T15:01:40;8.60;99.90
46091;DHT22;31826;53.572;10.170;2024-02-23T15:04:08;8.60;99.90
46091;DHT22;31826;53.572;10.170;2024-02-23T15:06:34;8.70;99.90
46091;DHT22;31826;53.572;10.170;2024-02-23T15:09:03;8.60;99.90
46091;DHT22;31826;53.572;10.170;2024-02-23T15:11:29;8.60;99.90
46091;DHT22;31826;53.572;10.170;2024-02-23T15:13:55;8.60;99.90
46091;DHT22;31826;53.572;10.170;2024-02-23T15:16:24;8.50;99.90
46091;DHT22;31826;53.572;10.170;2024-02-23T15:18:50;8.50;99.90
46091;DHT22;31826;53.572;10.170;2024-02-23T15:21:16;8.50;99.90
46091;DHT22;31826;53.572;10.170;2024-02-23T15:23:43;8.50;99.90
46091;DHT22;31826;53.572;10.170;2024-02-23T15:26:10;8.50;99.90